sensor_id;sensor_type;location;lat;lon;timestamp;temperature;humidity
44117;DHT22;29781;49.480;8.512;2023-09-19T00:02:04;18.80;99.90
44117;DHT22;29781;49.480;8.512;2023-09-19T00:04:32;18.70;99.90
44117;DHT22;29781;49.480;8.512;2023-09-19T00:06:58;18.80;99.90
44117;DHT22;29781;49.480;8.512;2023-09-19T00:09:23;18.80;99.90
44117;DHT22;29781;49.480;8.512;2023-09-19T00:11:52;18.80;99.90
44117;DHT22;29781;49.480;8.512;2023-09-19T00:14:18;18.80;99.90
44117;DHT22;29781;49.480;8.512;2023-09-19T00:16:43;18.70;99.90
44117;DHT22;29781;49.480;8.512;2023-09-19T00:19:09;18.70;99.90
44117;DHT22;29781;49.480;8.512;2023-09-19T00:21:35;18.70;99.90
44117;DHT22;29781;49.480;8.512;2023-09-19T00:24:04;18.70;99.90
44117;DHT22;29781;49.480;8.512;2023-09-19T00:26:32;18.70;99.90
44117;DHT22;29781;49.480;8.512;2023-09-19T00:28:57;18.60;99.90
44117;DHT22;29781;49.480;8.512;2023-09-19T00:31:24;18.70;99.90
44117;DHT22;29781;49.480;8.512;2023-09-19T00:33:50;18.60;99.90
44117;DHT22;29781;49.480;8.512;2023-09-19T00:36:17;18.60;99.90
44117;DHT22;29781;49.480;8.512;2023-09-19T00:38:43;18.60;99.90
44117;DHT22;29781;49.480;8.512;2023-09-19T00:41:11;18.60;99.90
44117;DHT22;29781;49.480;8.512;2023-09-19T00:43:38;18.60;99.90
44117;DHT22;29781;49.480;8.512;2023-09-19T00:46:05;18.60;99.90
44117;DHT22;29781;49.480;8.512;2023-09-19T00:48:31;18.60;99.90
44117;DHT22;29781;49.480;8.512;2023-09-19T00:51:02;18.60;99.90
44117;DHT22;29781;49.480;8.512;2023-09-19T00:53:31;18.50;99.90
44117;DHT22;29781;49.480;8.512;2023-09-19T00:55:56;18.60;99.90
44117;DHT22;29781;49.480;8.512;2023-09-19T00:58:22;18.60;99.90
44117;DHT22;29781;49.480;8.512;2023-09-19T01:00:48;18.50;99.90
44117;DHT22;29781;49.480;8.512;2023-09-19T01:03:14;18.50;99.90
44117;DHT22;29781;49.480;8.512;2023-09-19T01:05:40;18.50;99.90
44117;DHT22;29781;49.480;8.512;2023-09-19T01:08:06;18.50;99.90
44117;DHT22;29781;49.480;8.512;2023-09-19T01:10:33;18.60;99.90
44117;DHT22;29781;49.480;8.512;2023-09-19T01:21:11;18.40;99.90
44117;DHT22;29781;49.480;8.512;2023-09-19T01:29:47;18.30;99.90
44117;DHT22;29781;49.480;8.512;2023-09-19T01:32:20;18.30;99.90
44117;DHT22;29781;49.480;8.512;2023-09-19T01:34:56;18.30;99.90
44117;DHT22;29781;49.480;8.512;2023-09-19T01:37:29;18.40;99.90
44117;DHT22;29781;49.480;8.512;2023-09-19T01:40:07;18.50;99.90
44117;DHT22;29781;49.480;8.512;2023-09-19T01:43:20;18.40;99.90
44117;DHT22;29781;49.480;8.512;2023-09-19T01:46:04;18.40;99.90
44117;DHT22;29781;49.480;8.512;2023-09-19T01:48:40;18.50;99.90
44117;DHT22;29781;49.480;8.512;2023-09-19T01:51:14;18.50;99.90
44117;DHT22;29781;49.480;8.512;2023-09-19T01:53:56;18.50;99.90
44117;DHT22;29781;49.480;8.512;2023-09-19T01:56:50;18.50;99.90
44117;DHT22;29781;49.480;8.512;2023-09-19T01:59:21;18.50;99.90
44117;DHT22;29781;49.480;8.512;2023-09-19T02:01:49;18.50;99.90
44117;DHT22;29781;49.480;8.512;2023-09-19T02:04:15;18.50;99.90
44117;DHT22;29781;49.480;8.512;2023-09-19T02:06:41;18.50;99.90
44117;DHT22;29781;49.480;8.512;2023-09-19T02:09:07;18.50;99.90
44117;DHT22;29781;49.480;8.512;2023-09-19T02:11:32;18.60;99.90
44117;DHT22;29781;49.480;8.512;2023-09-19T02:13:58;18.60;99.90
44117;DHT22;29781;49.480;8.512;2023-09-19T02:16:25;18.60;99.90
44117;DHT22;29781;49.480;8.512;2023-09-19T02:18:50;18.70;99.90
44117;DHT22;29781;49.480;8.512;2023-09-19T02:21:16;18.60;99.90
44117;DHT22;29781;49.480;8.512;2023-09-19T02:23:43;18.60;99.90
44117;DHT22;29781;49.480;8.512;2023-09-19T02:26:09;18.50;99.90
44117;DHT22;29781;49.480;8.512;2023-09-19T02:28:34;18.50;99.90
44117;DHT22;29781;49.480;8.512;2023-09-19T02:31:01;18.40;99.90
44117;DHT22;29781;49.480;8.512;2023-09-19T02:33:27;18.30;99.90
44117;DHT22;29781;49.480;8.512;2023-09-19T02:35:56;18.40;99.90
44117;DHT22;29781;49.480;8.512;2023-09-19T02:38:26;18.50;99.90
44117;DHT22;29781;49.480;8.512;2023-09-19T02:40:52;18.50;99.90
44117;DHT22;29781;49.480;8.512;2023-09-19T02:43:18;18.50;99.90
44117;DHT22;29781;49.480;8.512;2023-09-19T02:45:45;18.50;99.90
44117;DHT22;29781;49.480;8.512;2023-09-19T02:48:12;18.50;99.90
44117;DHT22;29781;49.480;8.512;2023-09-19T02:50:37;18.50;99.90
44117;DHT22;29781;49.480;8.512;2023-09-19T02:53:04;18.40;99.90
44117;DHT22;29781;49.480;8.512;2023-09-19T02:55:30;18.50;99.90
44117;DHT22;29781;49.480;8.512;2023-09-19T02:57:57;18.60;99.90
44117;DHT22;29781;49.480;8.512;2023-09-19T03:00:23;18.50;99.90
44117;DHT22;29781;49.480;8.512;2023-09-19T03:02:50;18.50;99.90
44117;DHT22;29781;49.480;8.512;2023-09-19T03:05:17;18.50;99.90
44117;DHT22;29781;49.480;8.512;2023-09-19T03:07:43;18.60;99.90
44117;DHT22;29781;49.480;8.512;2023-09-19T03:10:11;18.60;99.90
44117;DHT22;29781;49.480;8.512;2023-09-19T03:12:37;18.50;99.90
44117;DHT22;29781;49.480;8.512;2023-09-19T03:15:03;18.50;99.90
44117;DHT22;29781;49.480;8.512;2023-09-19T03:17:29;18.50;99.90
44117;DHT22;29781;49.480;8.512;2023-09-19T03:19:55;18.50;99.90
44117;DHT22;29781;49.480;8.512;2023-09-19T03:22:28;18.40;99.90
44117;DHT22;29781;49.480;8.512;2023-09-19T03:24:54;18.40;99.90
44117;DHT22;29781;49.480;8.512;2023-09-19T03:27:19;18.30;99.90
44117;DHT22;29781;49.480;8.512;2023-09-19T03:29:46;18.40;99.90
44117;DHT22;29781;49.480;8.512;2023-09-19T03:32:12;18.40;99.90
44117;DHT22;29781;49.480;8.512;2023-09-19T03:34:38;18.50;99.90
44117;DHT22;29781;49.480;8.512;2023-09-19T03:37:06;18.50;99.90
44117;DHT22;29781;49.480;8.512;2023-09-19T03:39:32;18.50;99.90
44117;DHT22;29781;49.480;8.512;2023-09-19T03:41:57;18.40;99.90
44117;DHT22;29781;49.480;8.512;2023-09-19T03:44:23;18.40;99.90
44117;DHT22;29781;49.480;8.512;2023-09-19T03:46:48;18.30;99.90
44117;DHT22;29781;49.480;8.512;2023-09-19T03:49:14;18.30;99.90
44117;DHT22;29781;49.480;8.512;2023-09-19T03:51:39;18.30;99.90
44117;DHT22;29781;49.480;8.512;2023-09-19T03:54:07;18.20;99.90
44117;DHT22;29781;49.480;8.512;2023-09-19T03:56:32;18.20;99.90
44117;DHT22;29781;49.480;8.512;2023-09-19T03:58:58;18.10;99.90
44117;DHT22;29781;49.480;8.512;2023-09-19T04:01:24;18.00;99.90
44117;DHT22;29781;49.480;8.512;2023-09-19T04:03:49;18.10;99.90
44117;DHT22;29781;49.480;8.512;2023-09-19T04:06:17;18.10;99.90
44117;DHT22;29781;49.480;8.512;2023-09-19T04:08:43;18.10;99.90
44117;DHT22;29781;49.480;8.512;2023-09-19T04:11:09;18.20;99.90
44117;DHT22;29781;49.480;8.512;2023-09-19T04:13:35;18.20;99.90
44117;DHT22;29781;49.480;8.512;2023-09-19T04:16:01;18.30;99.90
44117;DHT22;29781;49.480;8.512;2023-09-19T04:18:29;18.30;99.90
44117;DHT22;29781;49.480;8.512;2023-09-19T04:20:57;18.30;99.90
44117;DHT22;29781;49.480;8.512;2023-09-19T04:23:22;18.30;99.90
44117;DHT22;29781;49.480;8.512;2023-09-19T04:25:48;18.30;99.90
44117;DHT22;29781;49.480;8.512;2023-09-19T04:28:14;18.30;99.90
44117;DHT22;29781;49.480;8.512;2023-09-19T04:30:40;18.30;99.90
44117;DHT22;29781;49.480;8.512;2023-09-19T04:33:06;18.30;99.90
44117;DHT22;29781;49.480;8.512;2023-09-19T04:35:32;18.30;99.90
44117;DHT22;29781;49.480;8.512;2023-09-19T04:37:58;18.30;99.90
44117;DHT22;29781;49.480;8.512;2023-09-19T04:40:23;18.20;99.90
44117;DHT22;29781;49.480;8.512;2023-09-19T04:42:55;18.20;99.90
44117;DHT22;29781;49.480;8.512;2023-09-19T04:45:24;18.20;99.90
44117;DHT22;29781;49.480;8.512;2023-09-19T04:47:50;18.20;99.90
44117;DHT22;29781;49.480;8.512;2023-09-19T04:50:15;18.20;99.90
44117;DHT22;29781;49.480;8.512;2023-09-19T04:52:43;18.10;99.90
44117;DHT22;29781;49.480;8.512;2023-09-19T04:55:13;18.10;99.90
44117;DHT22;29781;49.480;8.512;2023-09-19T04:57:43;18.10;99.90
44117;DHT22;29781;49.480;8.512;2023-09-19T05:00:14;18.10;99.90
44117;DHT22;29781;49.480;8.512;2023-09-19T05:02:43;18.00;99.90
44117;DHT22;29781;49.480;8.512;2023-09-19T05:05:09;18.00;99.90
44117;DHT22;29781;49.480;8.512;2023-09-19T05:07:55;18.10;99.90
44117;DHT22;29781;49.480;8.512;2023-09-19T05:10:21;18.10;99.90
44117;DHT22;29781;49.480;8.512;2023-09-19T05:12:47;18.10;99.90
44117;DHT22;29781;49.480;8.512;2023-09-19T05:15:14;18.00;99.90
44117;DHT22;29781;49.480;8.512;2023-09-19T05:17:47;17.80;99.90
44117;DHT22;29781;49.480;8.512;2023-09-19T05:20:12;17.70;99.90
44117;DHT22;29781;49.480;8.512;2023-09-19T05:22:50;17.60;99.90
44117;DHT22;29781;49.480;8.512;2023-09-19T05:25:22;17.50;99.90
44117;DHT22;29781;49.480;8.512;2023-09-19T05:27:47;17.60;99.90
44117;DHT22;29781;49.480;8.512;2023-09-19T05:30:13;17.70;99.90
44117;DHT22;29781;49.480;8.512;2023-09-19T05:32:40;17.80;99.90
44117;DHT22;29781;49.480;8.512;2023-09-19T05:35:05;17.90;99.90
44117;DHT22;29781;49.480;8.512;2023-09-19T05:37:35;17.90;99.90
44117;DHT22;29781;49.480;8.512;2023-09-19T05:40:02;17.90;99.90
44117;DHT22;29781;49.480;8.512;2023-09-19T05:42:27;17.90;99.90
44117;DHT22;29781;49.480;8.512;2023-09-19T05:44:53;17.90;99.90
44117;DHT22;29781;49.480;8.512;2023-09-19T05:47:18;18.00;99.90
44117;DHT22;29781;49.480;8.512;2023-09-19T05:49:44;18.00;99.90
44117;DHT22;29781;49.480;8.512;2023-09-19T05:52:09;18.00;99.90
44117;DHT22;29781;49.480;8.512;2023-09-19T05:54:35;18.10;99.90
44117;DHT22;29781;49.480;8.512;2023-09-19T05:57:00;18.10;99.90
44117;DHT22;29781;49.480;8.512;2023-09-19T05:59:27;18.20;99.90
44117;DHT22;29781;49.480;8.512;2023-09-19T06:01:52;18.20;99.90
44117;DHT22;29781;49.480;8.512;2023-09-19T06:04:18;18.20;99.90
44117;DHT22;29781;49.480;8.512;2023-09-19T06:06:45;18.10;99.90
44117;DHT22;29781;49.480;8.512;2023-09-19T06:09:10;18.10;99.90
44117;DHT22;29781;49.480;8.512;2023-09-19T06:11:36;18.10;99.90
44117;DHT22;29781;49.480;8.512;2023-09-19T06:14:03;18.20;99.90
44117;DHT22;29781;49.480;8.512;2023-09-19T06:16:29;18.30;99.90
44117;DHT22;29781;49.480;8.512;2023-09-19T06:18:55;18.30;99.90
44117;DHT22;29781;49.480;8.512;2023-09-19T06:21:24;18.40;99.90
44117;DHT22;29781;49.480;8.512;2023-09-19T06:23:50;18.50;99.90
44117;DHT22;29781;49.480;8.512;2023-09-19T06:26:15;18.50;99.90
44117;DHT22;29781;49.480;8.512;2023-09-19T06:28:41;18.40;99.90
44117;DHT22;29781;49.480;8.512;2023-09-19T06:31:08;18.30;99.90
44117;DHT22;29781;49.480;8.512;2023-09-19T06:33:36;18.30;99.90
44117;DHT22;29781;49.480;8.512;2023-09-19T06:36:05;18.40;99.90
44117;DHT22;29781;49.480;8.512;2023-09-19T06:38:31;18.40;99.90
44117;DHT22;29781;49.480;8.512;2023-09-19T06:41:00;18.50;99.90
44117;DHT22;29781;49.480;8.512;2023-09-19T06:43:26;18.40;99.90
44117;DHT22;29781;49.480;8.512;2023-09-19T06:45:53;18.30;99.90
44117;DHT22;29781;49.480;8.512;2023-09-19T06:48:20;18.20;99.90
44117;DHT22;29781;49.480;8.512;2023-09-19T06:50:46;18.20;99.90
44117;DHT22;29781;49.480;8.512;2023-09-19T06:53:13;18.30;99.90
44117;DHT22;29781;49.480;8.512;2023-09-19T06:55:39;18.00;99.90
44117;DHT22;29781;49.480;8.512;2023-09-19T06:58:05;18.10;99.90
44117;DHT22;29781;49.480;8.512;2023-09-19T07:00:31;18.00;99.90
44117;DHT22;29781;49.480;8.512;2023-09-19T07:03:05;18.10;99.90
44117;DHT22;29781;49.480;8.512;2023-09-19T07:05:34;18.10;99.90
44117;DHT22;29781;49.480;8.512;2023-09-19T07:08:03;18.20;99.90
44117;DHT22;29781;49.480;8.512;2023-09-19T07:10:28;18.10;99.90
44117;DHT22;29781;49.480;8.512;2023-09-19T07:15:21;18.30;99.90
44117;DHT22;29781;49.480;8.512;2023-09-19T07:17:48;18.30;99.90
44117;DHT22;29781;49.480;8.512;2023-09-19T07:20:13;18.30;99.90
44117;DHT22;29781;49.480;8.512;2023-09-19T07:22:41;18.50;99.90
44117;DHT22;29781;49.480;8.512;2023-09-19T07:25:07;18.70;99.90
44117;DHT22;29781;49.480;8.512;2023-09-19T07:27:33;18.80;99.90
44117;DHT22;29781;49.480;8.512;2023-09-19T07:29:59;18.90;99.90
44117;DHT22;29781;49.480;8.512;2023-09-19T07:32:24;19.00;99.90
44117;DHT22;29781;49.480;8.512;2023-09-19T07:34:50;19.10;99.90
44117;DHT22;29781;49.480;8.512;2023-09-19T07:37:16;19.30;99.90
44117;DHT22;29781;49.480;8.512;2023-09-19T07:39:42;19.20;99.90
44117;DHT22;29781;49.480;8.512;2023-09-19T07:42:08;19.20;99.90
44117;DHT22;29781;49.480;8.512;2023-09-19T07:44:35;19.40;99.90
44117;DHT22;29781;49.480;8.512;2023-09-19T07:47:01;19.50;99.90
44117;DHT22;29781;49.480;8.512;2023-09-19T07:49:29;19.60;99.90
44117;DHT22;29781;49.480;8.512;2023-09-19T07:51:54;19.50;99.90
44117;DHT22;29781;49.480;8.512;2023-09-19T07:54:20;19.10;99.90
44117;DHT22;29781;49.480;8.512;2023-09-19T07:56:46;19.00;99.90
44117;DHT22;29781;49.480;8.512;2023-09-19T07:59:12;19.10;99.90
44117;DHT22;29781;49.480;8.512;2023-09-19T08:01:39;19.00;99.90
44117;DHT22;29781;49.480;8.512;2023-09-19T08:04:07;19.00;99.90
44117;DHT22;29781;49.480;8.512;2023-09-19T08:06:32;19.20;99.90
44117;DHT22;29781;49.480;8.512;2023-09-19T08:08:58;19.30;99.90
44117;DHT22;29781;49.480;8.512;2023-09-19T08:11:26;19.20;99.90
44117;DHT22;29781;49.480;8.512;2023-09-19T08:13:51;19.30;99.90
44117;DHT22;29781;49.480;8.512;2023-09-19T08:16:18;19.30;99.90
44117;DHT22;29781;49.480;8.512;2023-09-19T08:18:48;19.50;99.90
44117;DHT22;29781;49.480;8.512;2023-09-19T08:21:18;19.50;99.90
44117;DHT22;29781;49.480;8.512;2023-09-19T08:23:44;19.30;99.90
44117;DHT22;29781;49.480;8.512;2023-09-19T08:26:10;19.30;99.90
44117;DHT22;29781;49.480;8.512;2023-09-19T08:28:36;19.20;99.90
44117;DHT22;29781;49.480;8.512;2023-09-19T08:31:03;19.20;99.90
44117;DHT22;29781;49.480;8.512;2023-09-19T08:33:33;19.10;99.90
44117;DHT22;29781;49.480;8.512;2023-09-19T08:36:00;19.10;99.90
44117;DHT22;29781;49.480;8.512;2023-09-19T08:38:25;19.10;99.90
44117;DHT22;29781;49.480;8.512;2023-09-19T08:40:57;19.20;99.90
44117;DHT22;29781;49.480;8.512;2023-09-19T08:43:23;19.30;99.90
44117;DHT22;29781;49.480;8.512;2023-09-19T08:45:52;19.20;99.90
44117;DHT22;29781;49.480;8.512;2023-09-19T08:48:29;19.30;99.90
44117;DHT22;29781;49.480;8.512;2023-09-19T08:51:10;19.30;99.90
44117;DHT22;29781;49.480;8.512;2023-09-19T08:54:03;19.30;99.90
44117;DHT22;29781;49.480;8.512;2023-09-19T08:56:29;19.30;99.90
44117;DHT22;29781;49.480;8.512;2023-09-19T08:59:02;19.20;99.90
44117;DHT22;29781;49.480;8.512;2023-09-19T09:01:29;19.20;99.90
44117;DHT22;29781;49.480;8.512;2023-09-19T09:03:57;19.20;99.90
44117;DHT22;29781;49.480;8.512;2023-09-19T09:06:24;19.30;99.90
44117;DHT22;29781;49.480;8.512;2023-09-19T09:08:51;19.30;99.90
44117;DHT22;29781;49.480;8.512;2023-09-19T09:11:18;19.40;99.90
44117;DHT22;29781;49.480;8.512;2023-09-19T09:13:44;19.50;99.90
44117;DHT22;29781;49.480;8.512;2023-09-19T09:16:15;19.40;99.90
44117;DHT22;29781;49.480;8.512;2023-09-19T09:18:44;19.50;99.90
44117;DHT22;29781;49.480;8.512;2023-09-19T09:21:11;19.60;99.90
44117;DHT22;29781;49.480;8.512;2023-09-19T09:23:36;19.70;99.90
44117;DHT22;29781;49.480;8.512;2023-09-19T09:26:02;19.80;99.90
44117;DHT22;29781;49.480;8.512;2023-09-19T09:28:30;19.70;99.90
44117;DHT22;29781;49.480;8.512;2023-09-19T09:30:59;19.80;99.90
44117;DHT22;29781;49.480;8.512;2023-09-19T09:33:28;19.70;99.90
44117;DHT22;29781;49.480;8.512;2023-09-19T09:36:01;19.70;99.90
44117;DHT22;29781;49.480;8.512;2023-09-19T09:38:30;19.60;99.90
44117;DHT22;29781;49.480;8.512;2023-09-19T09:41:08;19.50;99.90
44117;DHT22;29781;49.480;8.512;2023-09-19T09:43:39;19.60;99.90
44117;DHT22;29781;49.480;8.512;2023-09-19T09:46:20;19.70;99.90
44117;DHT22;29781;49.480;8.512;2023-09-19T09:48:46;19.70;99.90
44117;DHT22;29781;49.480;8.512;2023-09-19T09:51:32;19.60;99.90
44117;DHT22;29781;49.480;8.512;2023-09-19T09:54:15;19.60;99.90
44117;DHT22;29781;49.480;8.512;2023-09-19T09:56:54;19.70;99.90
44117;DHT22;29781;49.480;8.512;2023-09-19T09:59:21;19.90;99.90
44117;DHT22;29781;49.480;8.512;2023-09-19T10:01:49;19.90;99.90
44117;DHT22;29781;49.480;8.512;2023-09-19T10:04:28;20.00;99.90
44117;DHT22;29781;49.480;8.512;2023-09-19T10:07:01;20.00;99.90
44117;DHT22;29781;49.480;8.512;2023-09-19T10:09:44;20.10;99.90
44117;DHT22;29781;49.480;8.512;2023-09-19T10:12:11;20.00;99.90
44117;DHT22;29781;49.480;8.512;2023-09-19T10:14:38;20.20;99.90
44117;DHT22;29781;49.480;8.512;2023-09-19T10:17:10;20.10;99.90
44117;DHT22;29781;49.480;8.512;2023-09-19T10:19:44;20.10;99.90
44117;DHT22;29781;49.480;8.512;2023-09-19T10:22:12;20.20;99.90
44117;DHT22;29781;49.480;8.512;2023-09-19T10:24:47;20.30;99.90
44117;DHT22;29781;49.480;8.512;2023-09-19T10:27:15;20.50;99.90
44117;DHT22;29781;49.480;8.512;2023-09-19T10:29:42;20.40;99.90
44117;DHT22;29781;49.480;8.512;2023-09-19T10:32:09;20.50;99.90
44117;DHT22;29781;49.480;8.512;2023-09-19T10:34:43;20.70;99.90
44117;DHT22;29781;49.480;8.512;2023-09-19T10:37:12;20.80;99.90
44117;DHT22;29781;49.480;8.512;2023-09-19T10:39:39;20.50;99.90
44117;DHT22;29781;49.480;8.512;2023-09-19T10:42:06;20.60;99.90
44117;DHT22;29781;49.480;8.512;2023-09-19T10:44:38;20.60;99.90
44117;DHT22;29781;49.480;8.512;2023-09-19T10:47:09;20.40;99.90
44117;DHT22;29781;49.480;8.512;2023-09-19T10:49:42;20.70;99.90
44117;DHT22;29781;49.480;8.512;2023-09-19T10:52:08;20.80;99.90
44117;DHT22;29781;49.480;8.512;2023-09-19T10:54:38;20.60;99.90
44117;DHT22;29781;49.480;8.512;2023-09-19T10:57:09;20.70;99.90
44117;DHT22;29781;49.480;8.512;2023-09-19T10:59:35;20.70;99.90
44117;DHT22;29781;49.480;8.512;2023-09-19T11:02:16;20.70;99.90
44117;DHT22;29781;49.480;8.512;2023-09-19T11:04:42;20.90;99.90
44117;DHT22;29781;49.480;8.512;2023-09-19T11:07:12;20.90;99.90
44117;DHT22;29781;49.480;8.512;2023-09-19T11:09:48;20.80;99.90
44117;DHT22;29781;49.480;8.512;2023-09-19T11:12:51;20.80;99.90
44117;DHT22;29781;49.480;8.512;2023-09-19T11:26:48;21.30;99.90
44117;DHT22;29781;49.480;8.512;2023-09-19T11:29:27;21.50;99.90
44117;DHT22;29781;49.480;8.512;2023-09-19T11:31:57;21.40;99.90
44117;DHT22;29781;49.480;8.512;2023-09-19T11:34:40;21.50;99.90
44117;DHT22;29781;49.480;8.512;2023-09-19T11:39:37;21.60;99.90
44117;DHT22;29781;49.480;8.512;2023-09-19T11:48:23;21.10;99.90
44117;DHT22;29781;49.480;8.512;2023-09-19T11:50:50;21.20;99.90
44117;DHT22;29781;49.480;8.512;2023-09-19T11:53:17;21.20;99.90
44117;DHT22;29781;49.480;8.512;2023-09-19T11:55:42;21.40;99.90
44117;DHT22;29781;49.480;8.512;2023-09-19T11:58:09;21.60;99.90
44117;DHT22;29781;49.480;8.512;2023-09-19T12:00:38;21.60;99.90
44117;DHT22;29781;49.480;8.512;2023-09-19T12:03:11;21.70;99.90
44117;DHT22;29781;49.480;8.512;2023-09-19T12:05:39;21.90;99.90
44117;DHT22;29781;49.480;8.512;2023-09-19T12:08:05;21.80;99.90
44117;DHT22;29781;49.480;8.512;2023-09-19T12:10:47;21.80;99.90
44117;DHT22;29781;49.480;8.512;2023-09-19T12:13:16;22.10;99.90
44117;DHT22;29781;49.480;8.512;2023-09-19T12:15:43;22.30;99.90
44117;DHT22;29781;49.480;8.512;2023-09-19T12:18:25;22.40;99.90
44117;DHT22;29781;49.480;8.512;2023-09-19T12:20:58;22.30;99.90
44117;DHT22;29781;49.480;8.512;2023-09-19T12:23:25;22.30;99.90
44117;DHT22;29781;49.480;8.512;2023-09-19T12:25:51;22.20;99.90
44117;DHT22;29781;49.480;8.512;2023-09-19T12:28:19;22.10;99.90
44117;DHT22;29781;49.480;8.512;2023-09-19T12:30:48;22.00;99.90
44117;DHT22;29781;49.480;8.512;2023-09-19T12:33:23;21.80;99.90
44117;DHT22;29781;49.480;8.512;2023-09-19T12:35:51;21.80;99.90
44117;DHT22;29781;49.480;8.512;2023-09-19T12:38:29;22.10;99.90
44117;DHT22;29781;49.480;8.512;2023-09-19T12:40:59;22.10;99.90
44117;DHT22;29781;49.480;8.512;2023-09-19T12:43:26;22.00;99.90
44117;DHT22;29781;49.480;8.512;2023-09-19T12:45:52;22.10;99.90
44117;DHT22;29781;49.480;8.512;2023-09-19T12:48:23;22.00;99.90
44117;DHT22;29781;49.480;8.512;2023-09-19T12:51:08;22.00;99.90
44117;DHT22;29781;49.480;8.512;2023-09-19T12:53:46;21.90;99.90
44117;DHT22;29781;49.480;8.512;2023-09-19T12:56:22;22.00;99.90
44117;DHT22;29781;49.480;8.512;2023-09-19T12:58:58;22.00;99.90
44117;DHT22;29781;49.480;8.512;2023-09-19T13:01:28;22.10;99.90
44117;DHT22;29781;49.480;8.512;2023-09-19T13:06:45;22.40;99.90
44117;DHT22;29781;49.480;8.512;2023-09-19T13:09:30;22.60;99.90
44117;DHT22;29781;49.480;8.512;2023-09-19T13:12:04;22.60;99.90
44117;DHT22;29781;49.480;8.512;2023-09-19T13:14:32;22.50;99.90
44117;DHT22;29781;49.480;8.512;2023-09-19T13:17:02;22.60;99.90
44117;DHT22;29781;49.480;8.512;2023-09-19T13:19:48;22.60;99.90
44117;DHT22;29781;49.480;8.512;2023-09-19T13:22:42;22.60;99.90
44117;DHT22;29781;49.480;8.512;2023-09-19T13:25:18;22.60;99.90
44117;DHT22;29781;49.480;8.512;2023-09-19T13:27:46;22.70;99.90
44117;DHT22;29781;49.480;8.512;2023-09-19T13:30:14;22.70;99.90
44117;DHT22;29781;49.480;8.512;2023-09-19T13:32:40;22.60;99.90
44117;DHT22;29781;49.480;8.512;2023-09-19T13:35:07;22.50;99.90
44117;DHT22;29781;49.480;8.512;2023-09-19T13:37:37;22.40;99.90
44117;DHT22;29781;49.480;8.512;2023-09-19T13:40:07;22.40;99.90
44117;DHT22;29781;49.480;8.512;2023-09-19T13:42:32;22.50;99.90
44117;DHT22;29781;49.480;8.512;2023-09-19T13:44:58;22.50;99.90
44117;DHT22;29781;49.480;8.512;2023-09-19T13:47:24;22.60;99.90
44117;DHT22;29781;49.480;8.512;2023-09-19T13:49:52;22.60;99.90
44117;DHT22;29781;49.480;8.512;2023-09-19T13:52:21;22.60;99.90
44117;DHT22;29781;49.480;8.512;2023-09-19T13:54:49;22.60;99.90
44117;DHT22;29781;49.480;8.512;2023-09-19T13:57:15;22.60;99.90
44117;DHT22;29781;49.480;8.512;2023-09-19T13:59:42;22.60;99.90
44117;DHT22;29781;49.480;8.512;2023-09-19T14:02:07;22.70;99.90
44117;DHT22;29781;49.480;8.512;2023-09-19T14:04:33;22.80;99.90
44117;DHT22;29781;49.480;8.512;2023-09-19T14:07:02;22.80;99.90
44117;DHT22;29781;49.480;8.512;2023-09-19T14:09:28;22.60;99.90
44117;DHT22;29781;49.480;8.512;2023-09-19T14:11:54;22.50;99.90
44117;DHT22;29781;49.480;8.512;2023-09-19T14:14:22;22.60;99.90
44117;DHT22;29781;49.480;8.512;2023-09-19T14:16:48;22.80;99.90
44117;DHT22;29781;49.480;8.512;2023-09-19T14:19:17;22.90;99.90
44117;DHT22;29781;49.480;8.512;2023-09-19T14:21:43;22.80;99.90
44117;DHT22;29781;49.480;8.512;2023-09-19T14:24:09;22.80;99.90
44117;DHT22;29781;49.480;8.512;2023-09-19T14:26:35;22.90;99.90
44117;DHT22;29781;49.480;8.512;2023-09-19T14:29:01;22.90;99.90
44117;DHT22;29781;49.480;8.512;2023-09-19T14:31:30;22.70;99.90
44117;DHT22;29781;49.480;8.512;2023-09-19T14:33:56;22.50;99.90
44117;DHT22;29781;49.480;8.512;2023-09-19T14:36:22;22.50;99.90
44117;DHT22;29781;49.480;8.512;2023-09-19T14:38:47;22.60;99.90
44117;DHT22;29781;49.480;8.512;2023-09-19T14:41:19;22.60;99.90
44117;DHT22;29781;49.480;8.512;2023-09-19T14:43:45;22.70;99.90
44117;DHT22;29781;49.480;8.512;2023-09-19T14:46:10;22.60;99.90
44117;DHT22;29781;49.480;8.512;2023-09-19T14:48:36;22.50;99.90
44117;DHT22;29781;49.480;8.512;2023-09-19T14:51:06;22.60;99.90
44117;DHT22;29781;49.480;8.512;2023-09-19T14:53:34;22.70;99.90
44117;DHT22;29781;49.480;8.512;2023-09-19T14:56:04;22.60;99.90
44117;DHT22;29781;49.480;8.512;2023-09-19T14:58:32;22.50;99.90
44117;DHT22;29781;49.480;8.512;2023-09-19T15:01:24;22.50;99.90
44117;DHT22;29781;49.480;8.512;2023-09-19T15:03:50;22.50;99.90
44117;DHT22;29781;49.480;8.512;2023-09-19T15:06:16;22.50;99.90
44117;DHT22;29781;49.480;8.512;2023-09-19T15:08:46;22.50;99.90
44117;DHT22;29781;49.480;8.512;2023-09-19T15:11:15;22.50;99.90
44117;DHT22;29781;49.480;8.512;2023-09-19T15:13:46;22.60;99.90
44117;DHT22;29781;49.480;8.512;2023-09-19T15:16:12;22.60;99.90
44117;DHT22;29781;49.480;8.512;2023-09-19T15:18:40;22.60;99.90
44117;DHT22;29781;49.480;8.512;2023-09-19T15:21:08;22.50;99.90
44117;DHT22;29781;49.480;8.512;2023-09-19T15:23:34;22.50;99.90
44117;DHT22;29781;49.480;8.512;2023-09-19T15:26:04;22.50;99.90
44117;DHT22;29781;49.480;8.512;2023-09-19T15:28:30;22.40;99.90
44117;DHT22;29781;49.480;8.512;2023-09-19T15:31:11;22.50;99.90
44117;DHT22;29781;49.480;8.512;2023-09-19T15:33:39;22.50;99.90
44117;DHT22;29781;49.480;8.512;2023-09-19T15:36:12;22.60;99.90
44117;DHT22;29781;49.480;8.512;2023-09-19T15:39:08;22.60;99.90
44117;DHT22;29781;49.480;8.512;2023-09-19T15:41:40;22.60;99.90
44117;DHT22;29781;49.480;8.512;2023-09-19T15:44:17;22.60;99.90
44117;DHT22;29781;49.480;8.512;2023-09-19T15:46:43;22.60;99.90
44117;DHT22;29781;49.480;8.512;2023-09-19T15:49:18;22.60;99.90
44117;DHT22;29781;49.480;8.512;2023-09-19T15:51:44;22.60;99.90
44117;DHT22;29781;49.480;8.512;2023-09-19T15:54:12;22.60;99.90
44117;DHT22;29781;49.480;8.512;2023-09-19T15:56:41;22.60;99.90
44117;DHT22;29781;49.480;8.512;2023-09-19T15:59:07;22.60;99.90
44117;DHT22;29781;49.480;8.512;2023-09-19T16:01:36;22.60;99.90
44117;DHT22;29781;49.480;8.512;2023-09-19T16:04:02;22.70;99.90
44117;DHT22;29781;49.480;8.512;2023-09-19T16:06:29;22.80;99.90
44117;DHT22;29781;49.480;8.512;2023-09-19T16:08:57;22.70;99.90
44117;DHT22;29781;49.480;8.512;2023-09-19T16:11:24;22.70;99.90
44117;DHT22;29781;49.480;8.512;2023-09-19T16:13:51;22.70;99.90
44117;DHT22;29781;49.480;8.512;2023-09-19T16:16:26;22.80;99.90
44117;DHT22;29781;49.480;8.512;2023-09-19T16:18:57;22.60;99.90
44117;DHT22;29781;49.480;8.512;2023-09-19T16:21:25;22.70;99.90